createdAt,value
2023-02-15T00:00:26.989Z,10.29
2023-02-15T00:02:55.475Z,10.27
2023-02-15T00:05:25.346Z,10.27
2023-02-15T00:07:53.793Z,10.25
2023-02-15T00:10:22.451Z,10.23
2023-02-15T00:12:50.868Z,10.21
2023-02-15T00:15:19.479Z,10.18
2023-02-15T00:17:47.936Z,10.13
2023-02-15T00:20:16.647Z,10.11
2023-02-15T00:22:46.479Z,10.10
2023-02-15T00:25:15.009Z,10.09
2023-02-15T00:27:43.437Z,10.10
2023-02-15T00:30:13.299Z,10.10
2023-02-15T00:32:41.691Z,10.10
2023-02-15T00:35:10.823Z,10.09
2023-02-15T00:37:39.512Z,10.08
2023-02-15T00:40:11.338Z,10.08
2023-02-15T00:42:39.755Z,10.09
2023-02-15T00:45:09.636Z,10.09
2023-02-15T00:47:38.098Z,10.10
2023-02-15T00:50:08.578Z,10.10
2023-02-15T00:52:37.077Z,10.12
2023-02-15T00:55:06.354Z,10.14
2023-02-15T00:57:36.240Z,10.15
2023-02-15T01:00:06.058Z,10.17
2023-02-15T01:02:34.503Z,10.19
2023-02-15T01:05:03.366Z,10.19
2023-02-15T01:07:31.790Z,10.19
2023-02-15T01:10:00.177Z,10.18
2023-02-15T01:12:28.626Z,10.15
2023-02-15T01:14:58.459Z,10.12
2023-02-15T01:17:27.146Z,10.10
2023-02-15T01:19:55.566Z,10.11
2023-02-15T01:22:24.197Z,10.13
2023-02-15T01:24:52.599Z,10.13
2023-02-15T01:27:21.210Z,10.12
2023-02-15T01:29:49.713Z,10.12
2023-02-15T01:32:19.527Z,10.13
2023-02-15T01:34:47.934Z,10.13
2023-02-15T01:37:16.463Z,10.15
2023-02-15T01:39:44.848Z,10.16
2023-02-15T01:42:13.894Z,10.19
2023-02-15T01:44:55.388Z,10.17
2023-02-15T01:47:34.327Z,10.15
2023-02-15T01:50:12.140Z,10.12
2023-02-15T01:52:48.980Z,10.09
2023-02-15T01:55:17.853Z,10.03
2023-02-15T01:57:47.811Z,10.01
2023-02-15T02:00:18.675Z,9.99
2023-02-15T02:02:51.633Z,9.96
2023-02-15T02:05:20.409Z,9.94
2023-02-15T02:07:50.926Z,9.91
2023-02-15T02:10:23.458Z,9.90
2023-02-15T02:12:54.980Z,9.89
2023-02-15T02:15:31.132Z,9.87
2023-02-15T02:18:18.264Z,9.86
2023-02-15T02:21:13.920Z,9.86
2023-02-15T02:24:01.801Z,9.82
2023-02-15T02:27:20.221Z,9.75
2023-02-15T02:30:35.446Z,9.68
2023-02-15T02:33:53.286Z,9.62
2023-02-15T02:36:32.774Z,9.63
2023-02-15T02:39:25.836Z,9.65
2023-02-15T02:42:03.539Z,9.68
2023-02-15T02:44:43.922Z,9.73
2023-02-15T02:47:18.325Z,9.74
2023-02-15T02:49:48.148Z,9.78
2023-02-15T02:52:42.667Z,9.76
2023-02-15T02:55:18.288Z,9.75
2023-02-15T02:57:55.573Z,9.74
2023-02-15T03:00:27.682Z,9.73
2023-02-15T03:03:09.146Z,9.72
2023-02-15T03:05:43.654Z,9.73
2023-02-15T03:08:13.792Z,9.72
2023-02-15T03:10:43.728Z,9.69
2023-02-15T03:13:12.154Z,9.68
2023-02-15T03:16:01.836Z,9.67
2023-02-15T03:18:37.795Z,9.62
2023-02-15T03:21:09.809Z,9.60
2023-02-15T03:23:39.939Z,9.58
2023-02-15T03:26:11.888Z,9.58
2023-02-15T03:28:47.073Z,9.58
2023-02-15T03:31:19.456Z,9.61
2023-02-15T03:33:57.201Z,9.63
2023-02-15T03:36:38.986Z,9.66
2023-02-15T03:39:15.863Z,9.65
2023-02-15T03:41:52.156Z,9.66
2023-02-15T03:44:27.425Z,9.65
2023-02-15T03:47:04.398Z,9.66
2023-02-15T03:49:43.291Z,9.64
2023-02-15T03:52:16.198Z,9.61
2023-02-15T03:54:47.097Z,9.60
2023-02-15T03:57:38.249Z,9.60
2023-02-15T04:00:32.326Z,9.60
2023-02-15T04:03:16.969Z,9.60
2023-02-15T04:05:47.026Z,9.60
2023-02-15T04:08:17.082Z,9.60
2023-02-15T04:10:53.604Z,9.59
2023-02-15T04:13:22.802Z,9.55
2023-02-15T04:16:06.661Z,9.52
2023-02-15T04:18:56.040Z,9.48
2023-02-15T04:21:44.759Z,9.44
2023-02-15T04:24:33.221Z,9.40
2023-02-15T04:27:03.374Z,9.44
2023-02-15T04:29:32.682Z,9.48
2023-02-15T04:32:03.190Z,9.53
2023-02-15T04:34:31.620Z,9.59
2023-02-15T04:37:00.065Z,9.63
2023-02-15T04:39:29.973Z,9.68
2023-02-15T04:41:58.364Z,9.71
2023-02-15T04:44:27.742Z,9.71
2023-02-15T04:46:56.187Z,9.71
2023-02-15T04:49:24.615Z,9.70
2023-02-15T04:51:53.033Z,9.69
2023-02-15T04:54:21.464Z,9.67
2023-02-15T04:56:51.353Z,9.64
2023-02-15T04:59:19.721Z,9.59
2023-02-15T05:01:48.161Z,9.60
2023-02-15T05:04:16.663Z,9.59
2023-02-15T05:06:45.108Z,9.59
2023-02-15T05:09:14.264Z,9.60
2023-02-15T05:11:42.866Z,9.60
2023-02-15T05:14:12.701Z,9.61
2023-02-15T05:16:41.512Z,9.64
2023-02-15T05:19:10.170Z,9.68
2023-02-15T05:21:38.590Z,9.70
2023-02-15T05:24:28.612Z,9.69
2023-02-15T05:27:14.211Z,9.68
2023-02-15T05:29:43.984Z,9.68
2023-02-15T05:32:14.843Z,9.70
2023-02-15T05:34:43.431Z,9.68
2023-02-15T05:37:11.845Z,9.68
2023-02-15T05:39:40.270Z,9.69
2023-02-15T05:42:08.815Z,9.71
2023-02-15T05:44:37.279Z,9.72
2023-02-15T05:47:08.278Z,9.72
2023-02-15T05:49:37.052Z,9.71
2023-02-15T05:52:06.036Z,9.71
2023-02-15T05:54:34.544Z,9.68
2023-02-15T05:57:03.000Z,9.67
2023-02-15T05:59:31.470Z,9.64
2023-02-15T06:01:59.966Z,9.63
2023-02-15T06:04:30.050Z,9.64
2023-02-15T06:06:58.466Z,9.64
2023-02-15T06:09:26.919Z,9.63
2023-02-15T06:11:55.348Z,9.62
2023-02-15T06:14:24.099Z,9.62
2023-02-15T06:16:52.609Z,9.62
2023-02-15T06:19:22.049Z,9.62
2023-02-15T06:21:52.469Z,9.63
2023-02-15T06:24:20.917Z,9.64
2023-02-15T06:26:49.378Z,9.64
2023-02-15T06:29:17.936Z,9.66
2023-02-15T06:31:46.501Z,9.64
2023-02-15T06:34:14.974Z,9.62
2023-02-15T06:36:43.593Z,9.61
2023-02-15T06:39:13.435Z,9.59
2023-02-15T06:41:41.867Z,9.60
2023-02-15T06:44:10.570Z,9.60
2023-02-15T06:46:39.133Z,9.60
2023-02-15T06:49:07.852Z,9.60
2023-02-15T06:51:36.280Z,9.62
2023-02-15T06:54:04.907Z,9.65
2023-02-15T06:56:34.765Z,9.66
2023-02-15T06:59:03.393Z,9.69
2023-02-15T07:01:31.997Z,9.69
2023-02-15T07:04:00.451Z,9.67
2023-02-15T07:06:32.883Z,9.67
2023-02-15T07:09:01.509Z,9.68
2023-02-15T07:11:47.487Z,9.72
2023-02-15T07:14:17.560Z,9.76
2023-02-15T07:16:46.053Z,9.80
2023-02-15T07:19:14.518Z,9.84
2023-02-15T07:21:42.965Z,9.87
2023-02-15T07:24:11.632Z,9.90
2023-02-15T07:26:40.136Z,9.97
2023-02-15T07:29:08.582Z,10.05
2023-02-15T07:31:38.406Z,10.09
2023-02-15T07:34:09.129Z,10.16
2023-02-15T07:36:37.612Z,10.22
2023-02-15T07:39:06.144Z,10.30
2023-02-15T07:41:34.628Z,10.31
2023-02-15T07:44:03.132Z,10.31
2023-02-15T07:46:31.684Z,10.31
2023-02-15T07:49:01.509Z,10.33
2023-02-15T07:51:30.014Z,10.39
2023-02-15T07:53:58.537Z,10.45
2023-02-15T07:56:27.032Z,10.46
2023-02-15T07:58:56.879Z,10.45
2023-02-15T08:01:28.301Z,10.44
2023-02-15T08:03:59.849Z,10.46
2023-02-15T08:06:36.203Z,10.50
2023-02-15T08:09:07.407Z,10.53
2023-02-15T08:11:38.698Z,10.56
2023-02-15T08:14:09.681Z,10.54
2023-02-15T08:16:40.154Z,10.50
2023-02-15T08:19:11.556Z,10.49
2023-02-15T08:21:44.164Z,10.51
2023-02-15T08:24:15.880Z,10.60
2023-02-15T08:26:46.034Z,10.61
2023-02-15T08:29:14.814Z,10.63
2023-02-15T08:31:44.133Z,10.65
2023-02-15T08:34:16.503Z,10.69
2023-02-15T08:36:47.309Z,10.73
2023-02-15T08:39:17.132Z,10.72
2023-02-15T08:41:47.982Z,10.77
2023-02-15T08:44:19.107Z,10.81
2023-02-15T08:46:49.555Z,10.85
2023-02-15T08:49:20.714Z,10.88
2023-02-15T08:51:51.375Z,10.90
2023-02-15T08:54:22.463Z,10.93
2023-02-15T08:56:51.214Z,11.00
2023-02-15T08:59:22.139Z,11.07
2023-02-15T09:01:52.561Z,11.11
2023-02-15T09:04:22.047Z,11.12
2023-02-15T09:06:53.314Z,11.13
2023-02-15T09:09:22.461Z,11.10
2023-02-15T09:11:58.801Z,11.09
2023-02-15T09:14:28.547Z,11.10
2023-02-15T09:16:57.632Z,11.13
2023-02-15T09:19:27.089Z,11.19
2023-02-15T09:21:57.001Z,11.24
2023-02-15T09:24:25.507Z,11.29
2023-02-15T09:26:53.987Z,11.33
2023-02-15T09:29:23.738Z,11.36
2023-02-15T09:31:54.606Z,11.43
2023-02-15T09:34:24.808Z,11.52
2023-02-15T09:36:54.555Z,11.60
2023-02-15T09:39:25.967Z,11.64
2023-02-15T09:42:27.369Z,11.69
2023-02-15T09:45:32.347Z,11.78
2023-02-15T09:48:36.607Z,11.86
2023-02-15T09:51:38.013Z,11.95
2023-02-15T09:54:38.852Z,12.02
2023-02-15T09:57:18.858Z,12.09
2023-02-15T09:59:59.294Z,12.21
2023-02-15T10:02:46.380Z,12.33
2023-02-15T10:05:28.661Z,12.43
2023-02-15T10:08:49.615Z,12.52
2023-02-15T10:11:42.966Z,12.60
2023-02-15T10:14:38.856Z,12.63
2023-02-15T10:17:22.160Z,12.66
2023-02-15T10:20:09.074Z,12.72
2023-02-15T10:22:50.047Z,12.80
2023-02-15T10:25:34.292Z,12.81
2023-02-15T10:28:08.689Z,12.82
2023-02-15T10:30:46.919Z,12.87
2023-02-15T10:33:37.304Z,12.90
2023-02-15T10:36:23.813Z,12.87
2023-02-15T10:39:04.262Z,12.90
2023-02-15T10:41:47.165Z,13.03
2023-02-15T10:44:39.987Z,13.10
2023-02-15T10:47:29.127Z,13.17
2023-02-15T10:50:18.178Z,13.22
2023-02-15T10:53:03.415Z,13.32
2023-02-15T10:55:47.715Z,13.38
2023-02-15T10:58:26.907Z,13.44
2023-02-15T11:01:05.849Z,13.58
2023-02-15T11:03:51.370Z,13.76
2023-02-15T11:06:23.885Z,13.82
2023-02-15T11:08:57.582Z,13.80
2023-02-15T11:11:31.582Z,13.76
2023-02-15T11:14:04.633Z,13.66
2023-02-15T11:16:38.808Z,13.47
2023-02-15T11:19:15.197Z,13.36
2023-02-15T11:21:47.836Z,13.33
2023-02-15T11:24:21.099Z,13.40
2023-02-15T11:26:57.840Z,13.41
2023-02-15T11:29:33.875Z,13.46
2023-02-15T11:32:16.151Z,13.52
2023-02-15T11:34:53.834Z,13.64
2023-02-15T11:37:27.466Z,13.79
2023-02-15T11:39:56.031Z,13.96
2023-02-15T11:42:27.764Z,14.21
2023-02-15T11:45:04.165Z,14.56
2023-02-15T11:47:34.072Z,14.81
2023-02-15T11:50:02.642Z,14.98
2023-02-15T11:52:31.133Z,15.02
2023-02-15T11:54:59.622Z,14.92
2023-02-15T11:57:39.975Z,14.78
2023-02-15T12:00:17.895Z,14.65
2023-02-15T12:02:52.502Z,14.46
2023-02-15T12:05:26.215Z,14.33
2023-02-15T12:08:04.998Z,14.26
2023-02-15T12:10:38.338Z,14.16
2023-02-15T12:13:15.422Z,14.04
2023-02-15T12:15:47.574Z,13.96
2023-02-15T12:18:37.150Z,13.92
2023-02-15T12:21:11.386Z,13.89
2023-02-15T12:23:50.156Z,13.87
2023-02-15T12:26:28.202Z,13.93
2023-02-15T12:29:02.600Z,14.01
2023-02-15T12:31:38.708Z,14.12
2023-02-15T12:34:14.896Z,14.31
2023-02-15T12:36:48.132Z,14.46
2023-02-15T12:39:23.259Z,14.64
2023-02-15T12:42:06.226Z,14.96
2023-02-15T12:44:36.835Z,15.47
2023-02-15T12:47:08.264Z,15.88
2023-02-15T12:49:40.524Z,16.15
2023-02-15T12:52:27.816Z,16.26
2023-02-15T12:54:56.299Z,16.39
2023-02-15T12:57:28.611Z,16.76
2023-02-15T12:59:59.382Z,17.37
2023-02-15T13:02:38.587Z,18.08
2023-02-15T13:05:24.583Z,18.97
2023-02-15T13:07:58.847Z,19.82
2023-02-15T13:10:31.050Z,20.39
2023-02-15T13:13:00.489Z,20.88
2023-02-15T13:15:38.057Z,21.31
2023-02-15T13:18:13.078Z,21.70
2023-02-15T13:20:46.156Z,22.13
2023-02-15T13:23:29.414Z,22.29
2023-02-15T13:26:00.844Z,22.45
2023-02-15T13:28:39.069Z,22.68
2023-02-15T13:31:16.700Z,23.02
2023-02-15T13:33:51.535Z,23.31
2023-02-15T13:36:29.422Z,23.08
2023-02-15T13:39:12.857Z,22.26
2023-02-15T13:41:55.527Z,21.43
2023-02-15T13:44:44.286Z,20.56
2023-02-15T13:47:24.898Z,19.74
2023-02-15T13:50:21.428Z,19.09
2023-02-15T13:53:00.014Z,18.52
2023-02-15T13:55:40.233Z,17.96
2023-02-15T13:58:27.594Z,17.48
2023-02-15T14:01:10.723Z,17.00
2023-02-15T14:04:10.185Z,16.55
2023-02-15T14:07:08.636Z,16.08
2023-02-15T14:09:55.187Z,15.73
2023-02-15T14:12:44.467Z,15.41
2023-02-15T14:15:28.303Z,15.19
2023-02-15T14:18:14.766Z,14.93
2023-02-15T14:20:58.562Z,14.71
2023-02-15T14:23:50.127Z,14.53
2023-02-15T14:26:32.917Z,14.29
2023-02-15T14:29:16.121Z,14.06
2023-02-15T14:31:49.300Z,13.87
2023-02-15T14:34:25.726Z,13.71
2023-02-15T14:36:55.891Z,13.59
2023-02-15T14:40:06.559Z,13.43
2023-02-15T14:42:44.667Z,13.30
2023-02-15T14:45:23.467Z,13.17
2023-02-15T14:48:03.714Z,13.07
2023-02-15T14:50:45.806Z,12.94
2023-02-15T14:53:47.670Z,12.81
2023-02-15T14:56:28.663Z,12.78
2023-02-15T14:59:21.781Z,12.63
2023-02-15T15:02:00.390Z,12.54
2023-02-15T15:04:35.376Z,12.44
2023-02-15T15:07:14.664Z,12.34
2023-02-15T15:09:45.863Z,12.25
2023-02-15T15:12:40.518Z,12.15
2023-02-15T15:15:16.548Z,12.08
2023-02-15T15:18:01.774Z,12.02
2023-02-15T15:20:46.904Z,11.94
2023-02-15T15:23:45.892Z,11.86
2023-02-15T15:26:28.098Z,11.83
2023-02-15T15:29:06.723Z,11.77
2023-02-15T15:31:53.632Z,11.72
2023-02-15T15:35:05.757Z,11.65
2023-02-15T15:38:06.759Z,11.60
2023-02-15T15:41:09.957Z,11.52
2023-02-15T15:44:42.993Z,11.43
2023-02-15T15:47:41.257Z,11.35
2023-02-15T15:50:16.314Z,11.28
2023-02-15T15:52:51.047Z,11.22
2023-02-15T15:55:23.112Z,11.16
2023-02-15T15:57:55.286Z,11.10
2023-02-15T16:00:40.311Z,11.02
2023-02-15T16:03:17.608Z,10.95
2023-02-15T16:05:46.806Z,10.88
2023-02-15T16:08:17.082Z,10.82
2023-02-15T16:10:48.344Z,10.76
2023-02-15T16:13:18.896Z,10.69
2023-02-15T16:15:50.890Z,10.61
2023-02-15T16:18:26.259Z,10.62
2023-02-15T16:20:59.554Z,10.52
2023-02-15T16:24:07.249Z,10.41
2023-02-15T16:27:36.669Z,10.31
2023-02-15T16:30:37.551Z,10.19
2023-02-15T16:33:10.542Z,10.15
2023-02-15T16:35:56.180Z,10.11
2023-02-15T16:39:02.917Z,10.06
2023-02-15T16:41:34.823Z,10.01
2023-02-15T16:44:17.942Z,9.96
2023-02-15T16:46:52.624Z,9.92
2023-02-15T16:49:26.695Z,9.86
2023-02-15T16:52:07.218Z,9.80
2023-02-15T16:54:40.807Z,9.77
2023-02-15T16:57:21.372Z,9.73
2023-02-15T16:59:54.039Z,9.69
2023-02-15T17:02:53.185Z,9.66
2023-02-15T17:05:22.846Z,9.60
2023-02-15T17:08:09.234Z,9.57
2023-02-15T17:10:42.850Z,9.54
2023-02-15T17:13:15.670Z,9.51
2023-02-15T17:16:10.093Z,9.48
2023-02-15T17:18:48.104Z,9.44
2023-02-15T17:21:26.482Z,9.40
2023-02-15T17:24:03.041Z,9.37
2023-02-15T17:26:36.757Z,9.36
2023-02-15T17:29:22.830Z,9.33
2023-02-15T17:31:55.734Z,9.30
2023-02-15T17:35:09.819Z,9.25
2023-02-15T17:37:49.250Z,9.21
2023-02-15T17:40:27.155Z,9.29
2023-02-15T17:42:57.390Z,9.24
2023-02-15T17:45:36.489Z,9.19
2023-02-15T17:48:17.141Z,9.15
2023-02-15T17:50:51.569Z,9.11
2023-02-15T17:53:22.376Z,9.08
2023-02-15T17:55:57.235Z,9.04
2023-02-15T17:58:29.105Z,9.01
2023-02-15T18:01:26.350Z,8.97
2023-02-15T18:04:13.731Z,8.94
2023-02-15T18:07:02.986Z,8.89
2023-02-15T18:09:50.848Z,8.84
2023-02-15T18:12:28.239Z,8.80
2023-02-15T18:14:59.069Z,8.78
2023-02-15T18:17:35.156Z,8.78
2023-02-15T18:20:18.591Z,8.76
2023-02-15T18:22:50.571Z,8.75
2023-02-15T18:25:25.905Z,8.74
2023-02-15T18:27:58.796Z,8.73
2023-02-15T18:30:32.343Z,8.71
2023-02-15T18:33:05.270Z,8.70
2023-02-15T18:35:36.259Z,8.68
2023-02-15T18:38:06.375Z,8.67
2023-02-15T18:40:37.897Z,8.66
2023-02-15T18:43:15.280Z,8.64
2023-02-15T18:45:47.556Z,8.61
2023-02-15T18:48:18.326Z,8.60
2023-02-15T18:50:48.479Z,8.58
2023-02-15T18:53:22.538Z,8.55
2023-02-15T18:55:54.145Z,8.53
2023-02-15T18:58:29.921Z,8.50
2023-02-15T19:01:01.906Z,8.49
2023-02-15T19:03:35.479Z,8.48
2023-02-15T19:06:07.848Z,8.48
2023-02-15T19:08:39.809Z,8.46
2023-02-15T19:11:20.382Z,8.45
2023-02-15T19:13:53.935Z,8.42
2023-02-15T19:16:55.637Z,8.36
2023-02-15T19:19:29.509Z,8.38
2023-02-15T19:22:03.056Z,8.36
2023-02-15T19:24:41.807Z,8.31
2023-02-15T19:27:26.831Z,8.30
2023-02-15T19:30:05.660Z,8.28
2023-02-15T19:32:38.060Z,8.26
2023-02-15T19:35:18.979Z,8.25
2023-02-15T19:37:52.833Z,8.21
2023-02-15T19:40:26.307Z,8.20
2023-02-15T19:42:57.760Z,8.18
2023-02-15T19:45:33.424Z,8.15
2023-02-15T19:48:09.344Z,8.13
2023-02-15T19:50:40.334Z,8.11
2023-02-15T19:53:25.722Z,8.08
2023-02-15T19:55:57.510Z,8.08
2023-02-15T19:58:29.658Z,8.03
2023-02-15T20:01:04.375Z,8.01
2023-02-15T20:03:38.560Z,7.98
2023-02-15T20:06:15.851Z,7.96
2023-02-15T20:08:52.842Z,7.94
2023-02-15T20:11:26.296Z,7.91
2023-02-15T20:13:57.383Z,7.92
2023-02-15T20:16:36.159Z,7.92
2023-02-15T20:19:06.902Z,7.97
2023-02-15T20:21:40.105Z,8.02
2023-02-15T20:24:16.799Z,8.07
2023-02-15T20:26:49.465Z,8.14
2023-02-15T20:29:30.665Z,8.19
2023-02-15T20:32:04.635Z,8.26
2023-02-15T20:34:35.884Z,8.31
2023-02-15T20:37:09.150Z,8.37
2023-02-15T20:39:39.391Z,8.43
2023-02-15T20:42:16.733Z,8.50
2023-02-15T20:44:46.975Z,8.57
2023-02-15T20:47:19.220Z,8.63
2023-02-15T20:49:53.093Z,8.67
2023-02-15T20:52:26.990Z,8.66
2023-02-15T20:54:57.325Z,8.64
2023-02-15T20:57:28.050Z,8.60
2023-02-15T21:00:02.715Z,8.53
2023-02-15T21:02:39.464Z,8.49
2023-02-15T21:05:21.566Z,8.40
2023-02-15T21:07:53.694Z,8.33
2023-02-15T21:10:27.968Z,8.26
2023-02-15T21:13:00.753Z,8.20
2023-02-15T21:15:34.351Z,8.13
2023-02-15T21:18:09.170Z,8.07
2023-02-15T21:20:54.366Z,8.01
2023-02-15T21:23:29.156Z,7.95
2023-02-15T21:26:00.798Z,7.89
2023-02-15T21:28:32.960Z,7.84
2023-02-15T21:31:03.550Z,7.79
2023-02-15T21:33:35.931Z,7.74
2023-02-15T21:36:07.609Z,7.69
2023-02-15T21:38:37.723Z,7.66
2023-02-15T21:41:21.375Z,7.63
2023-02-15T21:44:10.218Z,7.59
2023-02-15T21:46:57.614Z,7.56
2023-02-15T21:49:28.118Z,7.54
2023-02-15T21:52:14.976Z,7.53
2023-02-15T21:54:44.070Z,7.51
2023-02-15T21:57:16.502Z,7.50
2023-02-15T21:59:47.239Z,7.50
2023-02-15T22:02:32.361Z,7.49
2023-02-15T22:05:02.722Z,7.49
2023-02-15T22:07:31.388Z,7.49
2023-02-15T22:10:00.255Z,7.48
2023-02-15T22:12:28.817Z,7.47
2023-02-15T22:14:57.462Z,7.45
2023-02-15T22:17:29.103Z,7.43
2023-02-15T22:19:58.994Z,7.42
2023-02-15T22:22:30.892Z,7.40
2023-02-15T22:24:59.352Z,7.38
2023-02-15T22:27:31.610Z,7.32
2023-02-15T22:30:00.144Z,7.30
2023-02-15T22:32:29.083Z,7.27
2023-02-15T22:34:57.658Z,7.22
2023-02-15T22:37:26.127Z,7.20
2023-02-15T22:39:56.275Z,7.19
2023-02-15T22:42:27.998Z,7.18
2023-02-15T22:44:58.447Z,7.14
2023-02-15T22:47:29.729Z,7.12
2023-02-15T22:49:58.287Z,7.09
2023-02-15T22:52:26.717Z,7.08
2023-02-15T22:54:56.557Z,7.06
2023-02-15T22:57:31.120Z,7.05
2023-02-15T23:00:00.684Z,7.03
2023-02-15T23:02:29.407Z,7.03
2023-02-15T23:04:57.912Z,7.01
2023-02-15T23:07:26.454Z,7.01
2023-02-15T23:09:56.307Z,7.00
2023-02-15T23:12:49.812Z,6.99
2023-02-15T23:15:18.536Z,6.99
2023-02-15T23:17:47.149Z,6.98
2023-02-15T23:20:15.999Z,6.97
2023-02-15T23:22:45.613Z,6.97
2023-02-15T23:25:19.067Z,6.94
2023-02-15T23:27:59.224Z,6.94
2023-02-15T23:30:28.222Z,6.91
2023-02-15T23:32:58.729Z,6.89
2023-02-15T23:35:27.235Z,6.87
2023-02-15T23:37:55.894Z,6.86
2023-02-15T23:40:43.104Z,6.83
2023-02-15T23:43:20.999Z,6.78
2023-02-15T23:45:49.680Z,6.75
2023-02-15T23:48:31.172Z,6.72
2023-02-15T23:51:00.209Z,6.69
2023-02-15T23:53:28.760Z,6.65
2023-02-15T23:55:59.811Z,6.63
2023-02-15T23:58:36.450Z,6.58
